createdAt,value
2018-11-20T00:00:55.507Z,80.87
2018-11-20T00:01:55.660Z,81.10
2018-11-20T00:02:55.795Z,81.34
2018-11-20T00:03:55.927Z,81.25
2018-11-20T00:04:56.057Z,81.15
2018-11-20T00:05:56.193Z,81.25
2018-11-20T00:06:56.320Z,80.96
2018-11-20T00:07:56.485Z,81.34
2018-11-20T00:08:56.605Z,81.72
2018-11-20T00:09:56.741Z,80.63
2018-11-20T00:10:56.920Z,80.82
2018-11-20T00:11:57.049Z,80.82
2018-11-20T00:12:57.186Z,81.34
2018-11-20T00:13:57.308Z,80.82
2018-11-20T00:14:57.483Z,80.82
2018-11-20T00:15:57.612Z,81.01
2018-11-20T00:16:57.743Z,81.01
2018-11-20T00:17:57.910Z,81.10
2018-11-20T00:18:58.032Z,80.15
2018-11-20T00:19:58.163Z,81.01
2018-11-20T00:20:58.294Z,81.38
2018-11-20T00:21:58.455Z,81.01
2018-11-20T00:22:58.592Z,81.29
2018-11-20T00:23:58.722Z,80.15
2018-11-20T00:24:58.858Z,80.34
2018-11-20T00:25:59.016Z,80.91
2018-11-20T00:26:59.145Z,80.91
2018-11-20T00:27:59.275Z,80.91
2018-11-20T00:28:59.411Z,80.91
2018-11-20T00:29:59.551Z,81.29
2018-11-20T00:30:59.682Z,81.10
2018-11-20T00:31:59.819Z,80.72
2018-11-20T00:32:59.949Z,81.10
2018-11-20T00:34:00.114Z,81.01
2018-11-20T00:35:00.239Z,81.01
2018-11-20T00:36:00.368Z,81.67
2018-11-20T00:37:00.497Z,81.10
2018-11-20T00:38:00.652Z,80.82
2018-11-20T00:39:00.773Z,81.10
2018-11-20T00:40:00.904Z,81.29
2018-11-20T00:41:01.036Z,81.20
2018-11-20T00:42:01.190Z,80.82
2018-11-20T00:43:01.316Z,80.63
2018-11-20T00:44:01.463Z,80.82
2018-11-20T00:45:01.596Z,81.20
2018-11-20T00:46:01.760Z,81.34
2018-11-20T00:47:01.891Z,81.72
2018-11-20T00:48:02.022Z,81.20
2018-11-20T00:49:02.156Z,81.15
2018-11-20T00:50:02.302Z,81.34
2018-11-20T00:51:02.425Z,81.34
2018-11-20T00:52:02.560Z,80.68
2018-11-20T00:53:02.700Z,81.20
2018-11-20T00:54:02.878Z,81.34
2018-11-20T00:55:02.984Z,81.63
2018-11-20T00:56:03.912Z,80.96
2018-11-20T00:57:03.219Z,80.68
2018-11-20T00:58:03.354Z,81.44
2018-11-20T00:59:03.486Z,81.44
2018-11-20T01:00:03.612Z,81.34
2018-11-20T01:01:03.755Z,81.53
2018-11-20T01:02:03.881Z,81.72
2018-11-20T01:03:04.015Z,81.72
2018-11-20T01:04:04.150Z,81.34
2018-11-20T01:05:04.322Z,81.25
2018-11-20T01:06:04.439Z,80.91
2018-11-20T01:07:04.582Z,81.01
2018-11-20T01:08:04.712Z,81.29
2018-11-20T01:09:04.846Z,80.77
2018-11-20T01:10:04.981Z,81.06
2018-11-20T01:11:05.125Z,80.96
2018-11-20T01:12:05.254Z,81.25
2018-11-20T01:13:05.383Z,81.82
2018-11-20T01:14:05.518Z,81.72
2018-11-20T01:15:05.649Z,81.63
2018-11-20T01:16:05.783Z,81.72
2018-11-20T01:17:05.908Z,81.63
2018-11-20T01:18:06.034Z,81.72
2018-11-20T01:19:06.160Z,81.72
2018-11-20T01:20:06.290Z,81.63
2018-11-20T01:21:06.415Z,81.34
2018-11-20T01:22:06.539Z,81.44
2018-11-20T01:23:06.670Z,81.72
2018-11-20T01:24:06.798Z,81.63
2018-11-20T01:25:06.928Z,81.34
2018-11-20T01:26:07.057Z,81.53
2018-11-20T01:27:07.200Z,81.82
2018-11-20T01:28:07.326Z,81.63
2018-11-20T01:29:07.455Z,81.72
2018-11-20T01:30:07.584Z,81.63
2018-11-20T01:31:07.711Z,81.72
2018-11-20T01:32:07.839Z,81.34
2018-11-20T01:33:08.047Z,81.72
2018-11-20T01:34:08.049Z,81.25
2018-11-20T01:35:08.176Z,81.92
2018-11-20T01:36:08.304Z,81.63
2018-11-20T01:37:08.494Z,81.72
2018-11-20T01:38:08.496Z,81.63
2018-11-20T01:39:08.622Z,81.25
2018-11-20T01:40:08.759Z,81.63
2018-11-20T01:41:08.877Z,81.82
2018-11-20T01:42:09.008Z,81.63
2018-11-20T01:43:09.136Z,81.72
2018-11-20T01:44:09.283Z,81.15
2018-11-20T01:45:09.412Z,81.44
2018-11-20T01:46:09.536Z,80.77
2018-11-20T01:47:09.674Z,80.77
2018-11-20T01:48:09.799Z,81.29
2018-11-20T01:49:09.928Z,81.15
2018-11-20T01:50:10.057Z,81.25
2018-11-20T01:51:10.211Z,81.06
2018-11-20T01:52:10.316Z,80.68
2018-11-20T01:53:10.446Z,81.15
2018-11-20T01:54:10.572Z,81.34
2018-11-20T01:55:10.700Z,81.63
2018-11-20T01:56:10.826Z,81.15
2018-11-20T01:57:10.963Z,80.68
2018-11-20T01:58:11.090Z,81.53
2018-11-20T01:59:11.223Z,80.87
2018-11-20T02:00:11.347Z,80.87
2018-11-20T02:01:11.477Z,81.15
2018-11-20T02:02:11.608Z,81.15
2018-11-20T02:03:11.730Z,81.25
2018-11-20T02:04:11.921Z,80.77
2018-11-20T02:05:12.036Z,81.15
2018-11-20T02:06:12.162Z,80.58
2018-11-20T02:07:12.291Z,81.38
2018-11-20T02:08:12.425Z,81.25
2018-11-20T02:09:12.548Z,81.01
2018-11-20T02:10:12.678Z,80.82
2018-11-20T02:11:12.802Z,80.91
2018-11-20T02:12:12.930Z,80.91
2018-11-20T02:13:13.052Z,80.25
2018-11-20T02:14:13.180Z,80.25
2018-11-20T02:15:13.305Z,80.53
2018-11-20T02:16:13.434Z,80.44
2018-11-20T02:17:13.560Z,80.72
2018-11-20T02:18:13.692Z,80.15
2018-11-20T02:19:13.820Z,80.72
2018-11-20T02:20:13.949Z,80.72
2018-11-20T02:21:14.105Z,80.53
2018-11-20T02:22:14.235Z,80.72
2018-11-20T02:23:14.369Z,81.06
2018-11-20T02:24:14.499Z,80.68
2018-11-20T02:25:14.627Z,80.77
2018-11-20T02:26:14.758Z,80.87
2018-11-20T02:27:14.882Z,80.96
2018-11-20T02:28:15.018Z,81.34
2018-11-20T02:29:15.140Z,81.57
2018-11-20T02:30:15.272Z,81.01
2018-11-20T02:31:15.395Z,80.96
2018-11-20T02:32:15.522Z,80.77
2018-11-20T02:33:15.649Z,80.87
2018-11-20T02:34:15.782Z,81.20
2018-11-20T02:35:15.904Z,81.01
2018-11-20T02:36:16.029Z,81.38
2018-11-20T02:37:16.160Z,81.29
2018-11-20T02:38:16.295Z,81.29
2018-11-20T02:39:16.420Z,81.01
2018-11-20T02:40:16.547Z,81.01
2018-11-20T02:41:16.671Z,80.72
2018-11-20T02:42:16.800Z,81.10
2018-11-20T02:43:16.923Z,81.20
2018-11-20T02:44:17.054Z,81.10
2018-11-20T02:45:17.178Z,81.06
2018-11-20T02:46:17.309Z,80.91
2018-11-20T02:47:17.442Z,80.91
2018-11-20T02:48:17.576Z,81.29
2018-11-20T02:49:17.701Z,81.57
2018-11-20T02:50:17.828Z,81.10
2018-11-20T02:51:17.977Z,80.63
2018-11-20T02:52:18.088Z,80.87
2018-11-20T02:53:18.217Z,81.29
2018-11-20T02:54:18.346Z,81.06
2018-11-20T02:55:18.472Z,81.48
2018-11-20T02:56:18.599Z,81.38
2018-11-20T02:57:18.723Z,81.29
2018-11-20T02:58:18.852Z,81.57
2018-11-20T02:59:18.979Z,80.91
2018-11-20T03:00:19.100Z,80.87
2018-11-20T03:01:19.236Z,80.91
2018-11-20T03:02:19.362Z,81.48
2018-11-20T03:03:19.488Z,81.57
2018-11-20T03:04:19.621Z,81.29
2018-11-20T03:05:19.747Z,80.91
2018-11-20T03:06:19.874Z,80.72
2018-11-20T03:07:19.997Z,81.20
2018-11-20T03:08:20.132Z,80.53
2018-11-20T03:09:20.258Z,81.29
2018-11-20T03:10:20.390Z,80.82
2018-11-20T03:11:20.511Z,81.01
2018-11-20T03:12:20.637Z,80.91
2018-11-20T03:13:20.766Z,81.38
2018-11-20T03:14:20.893Z,81.67
2018-11-20T03:15:21.025Z,81.38
2018-11-20T03:16:21.155Z,80.91
2018-11-20T03:17:21.281Z,81.10
2018-11-20T03:18:21.409Z,80.82
2018-11-20T03:19:21.536Z,81.29
2018-11-20T03:20:21.669Z,81.01
2018-11-20T03:21:21.793Z,80.91
2018-11-20T03:22:21.920Z,81.20
2018-11-20T03:23:22.044Z,81.29
2018-11-20T03:24:22.175Z,80.91
2018-11-20T03:25:22.305Z,80.82
2018-11-20T03:26:22.434Z,80.82
2018-11-20T03:27:22.557Z,81.29
2018-11-20T03:28:22.687Z,80.91
2018-11-20T03:29:22.812Z,80.91
2018-11-20T03:30:22.939Z,81.38
2018-11-20T03:31:23.072Z,81.48
2018-11-20T03:32:23.199Z,81.48
2018-11-20T03:33:23.327Z,81.10
2018-11-20T03:34:23.456Z,81.01
2018-11-20T03:35:23.635Z,81.29
2018-11-20T03:36:23.667Z,81.01
2018-11-20T03:37:23.787Z,81.38
2018-11-20T03:38:23.913Z,81.76
2018-11-20T03:39:24.043Z,81.67
2018-11-20T03:40:24.168Z,81.57
2018-11-20T03:41:24.299Z,81.76
2018-11-20T03:42:24.429Z,81.86
2018-11-20T03:43:24.558Z,81.95
2018-11-20T03:44:24.686Z,81.67
2018-11-20T03:45:24.818Z,81.67
2018-11-20T03:46:24.949Z,81.76
2018-11-20T03:47:25.075Z,81.86
2018-11-20T03:48:25.205Z,81.95
2018-11-20T03:49:25.333Z,82.43
2018-11-20T03:50:25.453Z,82.14
2018-11-20T03:51:25.587Z,82.43
2018-11-20T03:52:25.716Z,81.76
2018-11-20T03:53:25.838Z,81.76
2018-11-20T03:54:25.971Z,82.14
2018-11-20T03:55:26.097Z,82.90
2018-11-20T03:56:26.223Z,82.33
2018-11-20T03:57:26.353Z,82.52
2018-11-20T03:58:26.476Z,83.00
2018-11-20T03:59:26.612Z,82.24
2018-11-20T04:00:26.747Z,82.24
2018-11-20T04:01:26.866Z,82.71
2018-11-20T04:02:26.997Z,81.76
2018-11-20T04:03:27.132Z,81.95
2018-11-20T04:04:27.264Z,82.24
2018-11-20T04:05:27.387Z,81.86
2018-11-20T04:06:27.514Z,82.43
2018-11-20T04:07:27.692Z,81.67
2018-11-20T04:08:27.812Z,82.05
2018-11-20T04:09:27.941Z,81.86
2018-11-20T04:10:28.075Z,81.76
2018-11-20T04:11:28.209Z,81.95
2018-11-20T04:12:28.339Z,81.95
2018-11-20T04:13:28.470Z,82.62
2018-11-20T04:14:28.593Z,82.52
2018-11-20T04:15:28.718Z,82.62
2018-11-20T04:16:28.843Z,82.71
2018-11-20T04:17:28.965Z,82.14
2018-11-20T04:18:29.095Z,82.71
2018-11-20T04:19:29.216Z,82.24
2018-11-20T04:20:29.347Z,82.62
2018-11-20T04:21:29.476Z,82.71
2018-11-20T04:22:29.607Z,82.52
2018-11-20T04:23:30.424Z,82.33
2018-11-20T07:08:55.647Z,82.81
2018-11-20T07:09:34.750Z,82.71
2018-11-20T07:10:34.872Z,83.56
2018-11-20T07:11:35.003Z,84.13
2018-11-20T07:12:35.128Z,83.75
2018-11-20T07:13:35.255Z,83.75
2018-11-20T07:14:35.387Z,84.42
2018-11-20T07:15:35.770Z,83.85
2018-11-20T07:16:35.732Z,83.70
2018-11-20T07:17:35.796Z,83.61
2018-11-20T07:18:35.926Z,83.75
2018-11-20T07:19:36.086Z,83.61
2018-11-20T07:20:36.211Z,83.66
2018-11-20T07:21:36.337Z,83.94
2018-11-20T07:22:36.515Z,83.89
2018-11-20T07:23:36.589Z,84.17
2018-11-20T07:24:36.759Z,84.13
2018-11-20T07:25:36.843Z,84.27
2018-11-20T07:26:36.976Z,83.28
2018-11-20T07:27:37.128Z,83.18
2018-11-20T07:28:49.570Z,83.47
2018-11-20T07:29:37.372Z,83.61
2018-11-20T07:30:37.553Z,84.13
2018-11-20T07:31:37.660Z,83.66
2018-11-20T07:32:37.724Z,84.27
2018-11-20T07:33:37.858Z,84.13
2018-11-20T07:34:38.835Z,84.42
2018-11-20T07:35:38.113Z,84.61
2018-11-20T07:36:38.273Z,84.80
2018-11-20T07:37:38.369Z,84.51
2018-11-20T07:38:38.492Z,84.36
2018-11-20T07:39:38.630Z,84.23
2018-11-20T07:40:38.780Z,84.32
2018-11-20T07:41:38.909Z,84.32
2018-11-20T07:42:39.037Z,83.85
2018-11-20T07:43:39.302Z,85.03
2018-11-20T07:44:39.311Z,87.30
2018-11-20T07:45:39.443Z,85.93
2018-11-20T07:46:39.570Z,84.32
2018-11-20T07:47:39.703Z,84.61
2018-11-20T07:48:39.827Z,84.70
2018-11-20T07:49:39.959Z,84.42
2018-11-20T07:50:40.082Z,83.94
2018-11-20T07:51:40.289Z,84.70
2018-11-20T07:52:40.398Z,84.27
2018-11-20T07:53:40.521Z,84.89
2018-11-20T07:54:40.720Z,84.61
2018-11-20T07:55:40.732Z,84.61
2018-11-20T07:56:40.848Z,84.61
2018-11-20T07:57:40.980Z,84.23
2018-11-20T07:58:41.109Z,83.75
2018-11-20T07:59:41.253Z,84.04
2018-11-20T08:00:41.379Z,84.23
2018-11-20T08:01:41.512Z,84.70
2018-11-20T08:02:41.640Z,84.80
2018-11-20T08:03:41.793Z,84.70
2018-11-20T08:04:41.917Z,84.80
2018-11-20T08:05:42.042Z,84.74
2018-11-20T08:06:42.175Z,84.51
2018-11-20T08:07:42.357Z,84.80
2018-11-20T08:08:42.649Z,84.84
2018-11-20T08:09:42.612Z,84.61
2018-11-20T08:10:42.735Z,84.61
2018-11-20T08:11:42.881Z,84.74
2018-11-20T08:12:43.007Z,84.27
2018-11-20T08:13:43.136Z,84.27
2018-11-20T08:14:43.262Z,84.32
2018-11-20T08:15:43.462Z,84.42
2018-11-20T08:16:43.546Z,83.94
2018-11-20T08:17:43.671Z,84.23
2018-11-20T08:18:43.797Z,84.70
2018-11-20T08:19:43.962Z,84.70
2018-11-20T08:20:44.082Z,84.65
2018-11-20T08:21:44.217Z,84.61
2018-11-20T08:22:44.339Z,84.46
2018-11-20T08:23:44.483Z,84.84
2018-11-20T08:24:44.706Z,84.74
2018-11-20T08:25:44.787Z,84.27
2018-11-20T08:26:44.897Z,84.46
2018-11-20T08:27:44.980Z,83.98
2018-11-20T08:28:45.163Z,84.27
2018-11-20T08:29:45.274Z,84.17
2018-11-20T08:30:45.410Z,84.46
2018-11-20T08:31:45.549Z,83.80
2018-11-20T08:32:45.677Z,83.98
2018-11-20T08:33:45.876Z,83.80
2018-11-20T08:34:45.952Z,83.42
2018-11-20T08:35:46.112Z,83.61
2018-11-20T08:36:52.180Z,83.32
2018-11-20T08:37:46.318Z,83.98
2018-11-20T08:38:46.475Z,83.32
2018-11-20T08:39:46.589Z,83.32
2018-11-20T08:40:46.767Z,83.23
2018-11-20T08:41:46.888Z,83.51
2018-11-20T08:42:47.017Z,83.42
2018-11-20T08:43:47.160Z,83.61
2018-11-20T08:44:47.286Z,83.61
2018-11-20T08:45:47.420Z,83.51
2018-11-20T08:46:47.553Z,83.42
2018-11-20T08:47:47.764Z,83.70
2018-11-20T08:48:47.940Z,84.27
2018-11-20T08:49:47.947Z,84.84
2018-11-20T08:50:48.073Z,84.36
2018-11-20T08:51:48.229Z,84.08
2018-11-20T08:52:48.366Z,84.36
2018-11-20T08:53:48.564Z,84.17
2018-11-20T08:54:48.613Z,83.56
2018-11-20T08:55:48.754Z,83.80
2018-11-20T08:56:48.882Z,83.89
2018-11-20T08:57:49.010Z,84.17
2018-11-20T08:58:49.137Z,83.98
2018-11-20T08:59:49.302Z,83.32
2018-11-20T09:00:49.452Z,83.51
2018-11-20T09:01:49.580Z,84.17
2018-11-20T09:02:49.760Z,84.08
2018-11-20T09:03:49.850Z,84.46
2018-11-20T09:05:12.107Z,84.46
2018-11-20T09:05:50.107Z,83.98
2018-11-20T09:06:50.725Z,84.74
2018-11-20T09:07:50.392Z,83.98
2018-11-20T09:09:03.147Z,83.98
2018-11-20T09:09:50.724Z,84.08
2018-11-20T09:10:50.770Z,84.17
2018-11-20T09:11:50.904Z,84.08
2018-11-20T09:12:51.025Z,84.17
2018-11-20T09:13:51.189Z,83.80
2018-11-20T09:15:18.003Z,84.17
2018-11-20T09:15:51.378Z,83.70
2018-11-20T09:16:51.511Z,83.32
2018-11-20T09:17:51.693Z,83.61
2018-11-20T09:18:51.764Z,84.17
2018-11-20T09:19:51.894Z,84.36
2018-11-20T09:20:52.027Z,83.80
2018-11-20T09:21:52.155Z,84.17
2018-11-20T09:22:52.288Z,83.70
2018-11-20T09:23:52.412Z,83.98
2018-11-20T09:24:52.538Z,84.36
2018-11-20T09:25:52.833Z,84.36
2018-11-20T09:26:52.798Z,84.55
2018-11-20T09:27:52.953Z,84.36
2018-11-20T09:28:53.079Z,83.98
2018-11-20T09:29:53.200Z,84.46
2018-11-20T09:30:53.328Z,83.89
2018-11-20T09:31:53.464Z,84.46
2018-11-20T09:32:53.585Z,84.65
2018-11-20T09:33:53.714Z,84.36
2018-11-20T09:34:53.872Z,84.46
2018-11-20T09:35:53.968Z,84.36
2018-11-20T09:36:54.100Z,83.80
2018-11-20T09:37:54.246Z,83.70
2018-11-20T09:38:54.384Z,83.80
2018-11-20T09:39:54.510Z,83.80
2018-11-20T09:40:54.642Z,84.36
2018-11-20T09:41:54.777Z,84.27
2018-11-20T09:42:54.908Z,84.27
2018-11-20T09:43:55.027Z,84.08
2018-11-20T09:44:55.152Z,84.17
2018-11-20T09:45:55.280Z,84.27
2018-11-20T09:46:55.468Z,83.80
2018-11-20T09:48:06.294Z,83.89
2018-11-20T09:48:55.668Z,84.27
2018-11-20T09:49:55.799Z,84.27
2018-11-20T09:50:55.925Z,84.17
2018-11-20T09:51:56.079Z,84.27
2018-11-20T09:52:56.247Z,84.55
2018-11-20T09:53:56.332Z,84.17
2018-11-20T09:54:56.468Z,84.36
2018-11-20T09:55:56.620Z,83.98
2018-11-20T09:56:56.754Z,84.74
2018-11-20T09:57:56.917Z,84.46
2018-11-20T09:58:57.051Z,84.36
2018-11-20T09:59:57.266Z,83.70
2018-11-20T10:00:57.303Z,83.42
2018-11-20T10:01:57.467Z,83.42
2018-11-20T10:02:57.565Z,83.89
2018-11-20T10:03:57.764Z,84.17
2018-11-20T10:04:57.860Z,83.80
2018-11-20T10:05:57.984Z,83.80
2018-11-20T10:06:58.198Z,84.17
2018-11-20T10:07:58.247Z,84.17
2018-11-20T10:08:58.374Z,84.27
2018-11-20T10:09:58.506Z,84.74
2018-11-20T10:10:58.628Z,84.84
2018-11-20T10:11:58.782Z,84.84
2018-11-20T10:12:58.947Z,85.03
2018-11-20T10:13:59.108Z,85.31
2018-11-20T10:14:59.329Z,85.03
2018-11-20T10:15:59.333Z,84.94
2018-11-20T10:16:59.491Z,85.22
2018-11-20T10:17:59.620Z,85.50
2018-11-20T10:18:59.751Z,85.60
2018-11-20T10:19:59.876Z,85.22
2018-11-20T10:21:00.003Z,85.41
2018-11-20T10:22:00.187Z,86.16
2018-11-20T10:23:00.261Z,85.97
2018-11-20T10:24:00.387Z,85.41
2018-11-20T10:25:00.644Z,85.50
2018-11-20T10:26:01.744Z,85.31
2018-11-20T10:27:00.782Z,85.22
2018-11-20T10:28:00.909Z,85.03
2018-11-20T10:29:01.037Z,85.13
2018-11-20T10:30:01.159Z,85.13
2018-11-20T10:31:01.296Z,84.94
2018-11-20T10:32:01.439Z,85.03
2018-11-20T10:33:12.178Z,85.03
2018-11-20T10:34:01.686Z,84.94
2018-11-20T10:35:01.809Z,85.03
2018-11-20T10:36:01.935Z,85.88
2018-11-20T10:37:02.065Z,85.69
2018-11-20T10:38:02.231Z,85.88
2018-11-20T10:39:02.331Z,85.60
2018-11-20T10:40:02.463Z,85.60
2018-11-20T10:41:02.591Z,85.78
2018-11-20T10:42:02.718Z,85.03
2018-11-20T10:43:02.857Z,85.31
2018-11-20T10:44:03.068Z,84.84
2018-11-20T10:45:03.069Z,85.03
2018-11-20T10:46:03.218Z,85.69
2018-11-20T10:47:03.336Z,86.16
2018-11-20T10:48:03.460Z,86.35
2018-11-20T10:49:03.588Z,86.07
2018-11-20T10:50:03.717Z,86.07
2018-11-20T10:51:03.846Z,86.07
2018-11-20T10:52:03.969Z,86.74
2018-11-20T10:53:04.100Z,87.02
2018-11-20T10:54:04.227Z,86.93
2018-11-20T10:55:04.358Z,86.07
2018-11-20T10:56:04.490Z,86.16
2018-11-20T10:57:04.622Z,86.07
2018-11-20T10:58:04.770Z,85.78
2018-11-20T10:59:04.894Z,85.88
2018-11-20T11:00:05.029Z,85.60
2018-11-20T11:01:05.150Z,85.78
2018-11-20T11:02:05.289Z,85.69
2018-11-20T11:03:05.414Z,85.60
2018-11-20T11:04:05.558Z,85.60
2018-11-20T11:05:05.766Z,85.60
2018-11-20T11:06:05.809Z,85.69
2018-11-20T11:07:06.192Z,86.07
2018-11-20T11:08:06.118Z,85.88
2018-11-20T11:09:06.189Z,85.93
2018-11-20T11:10:06.334Z,86.16
2018-11-20T11:11:06.455Z,85.97
2018-11-20T11:12:06.654Z,86.16
2018-11-20T11:13:06.714Z,86.16
2018-11-20T11:14:06.837Z,86.55
2018-11-20T11:15:06.974Z,86.35
2018-11-20T11:16:07.100Z,85.97
2018-11-20T11:17:07.227Z,86.07
2018-11-20T11:18:07.358Z,86.07
2018-11-20T11:19:07.492Z,86.55
2018-11-20T11:20:07.627Z,86.16
2018-11-20T11:21:07.835Z,86.79
2018-11-20T11:22:07.877Z,86.41
2018-11-20T11:23:08.003Z,87.54
2018-11-20T11:24:08.138Z,87.83
2018-11-20T11:25:08.264Z,88.21
2018-11-20T11:26:08.395Z,88.78
2018-11-20T11:27:08.537Z,88.59
2018-11-20T11:28:08.666Z,88.59
2018-11-20T11:29:08.796Z,88.59
2018-11-20T11:30:08.958Z,88.68
2018-11-20T11:31:09.104Z,88.82
2018-11-20T11:32:09.224Z,88.63
2018-11-20T11:33:09.355Z,88.16
2018-11-20T11:34:09.486Z,87.83
2018-11-20T11:35:09.615Z,87.83
2018-11-20T11:36:09.745Z,88.21
2018-11-20T11:37:09.877Z,87.77
2018-11-20T11:38:10.006Z,88.06
2018-11-20T11:39:10.132Z,87.73
2018-11-20T11:40:10.259Z,88.06
2018-11-20T11:41:10.388Z,87.77
2018-11-20T11:42:10.524Z,87.83
2018-11-20T11:43:10.647Z,88.06
2018-11-20T11:44:10.814Z,87.97
2018-11-20T11:45:10.968Z,87.97
2018-11-20T11:46:11.105Z,88.73
2018-11-20T11:47:11.237Z,88.73
2018-11-20T11:48:11.391Z,88.73
2018-11-20T11:49:11.497Z,88.78
2018-11-20T11:50:11.618Z,88.73
2018-11-20T11:51:11.747Z,88.96
2018-11-20T11:52:11.878Z,88.92
2018-11-20T11:53:12.006Z,89.11
2018-11-20T11:54:12.135Z,89.20
2018-11-20T11:55:12.265Z,89.20
2018-11-20T11:56:12.382Z,88.73
2018-11-20T11:57:12.516Z,88.73
2018-11-20T11:58:12.645Z,89.06
2018-11-20T11:59:12.775Z,89.44
2018-11-20T12:00:12.904Z,89.15
2018-11-20T12:01:13.058Z,89.48
